Time;durP1;ratioP1;P1;durP2;ratioP2;P2;SDS_P1;SDS_P2;PMS_P1;PMS_P2;Temp;Humidity;BMP_temperature;BMP_pressure;BME280_temperature;BME280_humidity;BME280_pressure;Samples;Min_cycle;Max_cycle;Signal;HPM_P1;HPM_P2
2021/07/24 00:01:37;;;;;;;16.20;10.60;;;14.30;99.90;;;;;;5052579;28;20056;-38
2021/07/24 00:04:05;;;;;;;14.45;10.25;;;14.30;99.90;;;;;;5052703;28;20064;-40
2021/07/24 00:06:30;;;;;;;14.85;11.40;;;14.30;99.90;;;;;;5052731;28;20104;-39
2021/07/24 00:08:58;;;;;;;15.38;10.60;;;14.20;99.90;;;;;;5052543;28;20100;-40
2021/07/24 00:11:24;;;;;;;11.98;9.95;;;14.20;99.90;;;;;;5052624;28;20098;-42
2021/07/24 00:13:49;;;;;;;18.15;10.50;;;14.20;99.90;;;;;;5051274;28;20021;-39
2021/07/24 00:16:15;;;;;;;12.40;9.73;;;14.20;99.90;;;;;;5052575;28;20033;-38
2021/07/24 00:18:40;;;;;;;10.10;7.90;;;14.20;99.90;;;;;;5052620;28;20074;-40
2021/07/24 00:21:06;;;;;;;10.43;9.30;;;14.10;99.90;;;;;;5052450;28;20060;-40
2021/07/24 00:23:31;;;;;;;13.88;9.80;;;14.10;99.90;;;;;;5052495;28;20021;-40
2021/07/24 00:25:56;;;;;;;13.40;8.48;;;14.20;99.90;;;;;;5051148;28;20075;-38
2021/07/24 00:28:22;;;;;;;11.18;9.27;;;14.20;99.90;;;;;;5051192;28;20025;-38
2021/07/24 00:30:47;;;;;;;10.80;8.43;;;14.20;99.90;;;;;;5052758;28;20044;-40
2021/07/24 00:33:13;;;;;;;11.82;9.43;;;14.20;99.90;;;;;;5052394;28;20033;-38
2021/07/24 00:35:38;;;;;;;12.45;10.07;;;14.20;99.90;;;;;;5052398;28;20037;-41
2021/07/24 00:38:04;;;;;;;10.65;8.45;;;14.20;99.90;;;;;;5052270;28;20147;-40
2021/07/24 00:40:35;;;;;;;10.18;8.95;;;14.30;99.90;;;;;;5052239;28;20057;-38
2021/07/24 00:43:02;;;;;;;12.18;9.07;;;14.30;99.90;;;;;;5050906;28;20112;-38
2021/07/24 00:45:33;;;;;;;12.98;9.13;;;14.30;99.90;;;;;;5052294;28;20021;-38
2021/07/24 00:48:00;;;;;;;8.07;6.57;;;14.30;99.90;;;;;;5052607;28;20049;-38
2021/07/24 00:50:26;;;;;;;11.10;9.35;;;14.30;99.90;;;;;;5056082;28;20419;-40
2021/07/24 00:52:59;;;;;;;12.77;9.10;;;14.30;99.90;;;;;;5055929;28;20097;-40
2021/07/24 00:55:24;;;;;;;13.65;9.25;;;14.30;99.90;;;;;;5056073;28;20104;-40
2021/07/24 00:57:50;;;;;;;9.93;7.65;;;14.40;99.90;;;;;;5054665;28;20108;-38
2021/07/24 01:00:16;;;;;;;11.35;8.27;;;14.50;99.90;;;;;;5055873;28;20111;-41
2021/07/24 01:02:42;;;;;;;9.85;8.77;;;14.40;99.90;;;;;;5055608;28;20041;-41
2021/07/24 01:05:08;;;;;;;8.57;6.78;;;14.40;99.90;;;;;;5055786;28;20060;-38
2021/07/24 01:07:38;;;;;;;9.10;7.07;;;14.40;99.90;;;;;;5055655;28;20029;-39
2021/07/24 01:10:05;;;;;;;10.20;8.60;;;14.40;99.90;;;;;;5055705;28;20177;-38
2021/07/24 01:12:32;;;;;;;10.32;8.20;;;14.40;99.90;;;;;;5054355;28;20083;-38
2021/07/24 01:14:58;;;;;;;10.30;8.57;;;14.30;99.90;;;;;;5055586;28;20484;-42
2021/07/24 01:17:24;;;;;;;10.32;7.45;;;14.40;99.90;;;;;;5055732;28;20112;-39
2021/07/24 01:19:49;;;;;;;10.82;8.35;;;14.40;99.90;;;;;;5055478;28;20029;-39
2021/07/24 01:22:15;;;;;;;13.45;9.10;;;14.40;99.90;;;;;;5055307;28;20029;-38
2021/07/24 01:24:41;;;;;;;10.57;8.18;;;14.40;99.90;;;;;;5055443;28;20025;-38
2021/07/24 01:27:10;;;;;;;12.48;8.15;;;14.40;99.90;;;;;;5055353;28;20029;-41
2021/07/24 01:29:36;;;;;;;10.05;7.63;;;14.40;99.90;;;;;;5054129;28;20017;-40
2021/07/24 01:32:03;;;;;;;12.40;8.60;;;14.50;99.90;;;;;;5055196;28;20051;-41
2021/07/24 01:34:28;;;;;;;15.50;9.23;;;14.50;99.90;;;;;;5055176;28;20107;-39
2021/07/24 01:36:54;;;;;;;11.27;8.65;;;14.50;99.90;;;;;;5055198;28;20480;-38
2021/07/24 01:39:19;;;;;;;10.60;8.65;;;14.50;99.90;;;;;;5055182;28;20032;-40
2021/07/24 01:41:45;;;;;;;12.77;9.93;;;14.50;99.90;;;;;;5055125;28;20083;-40
2021/07/24 01:44:11;;;;;;;12.10;8.60;;;14.50;99.90;;;;;;5053766;28;20482;-39
2021/07/24 01:46:37;;;;;;;13.07;9.43;;;14.50;99.90;;;;;;5055073;28;20024;-41
2021/07/24 01:54:43;;;;;;;12.57;9.68;;;14.50;99.90;;;;;;5044499;28;20070;-40
2021/07/24 01:57:11;;;;;;;15.73;9.88;;;14.50;99.90;;;;;;5054763;28;20120;-38
2021/07/24 01:59:42;;;;;;;9.98;8.40;;;14.50;99.90;;;;;;5053343;28;20432;-38
2021/07/24 02:02:09;;;;;;;11.05;8.23;;;14.50;99.90;;;;;;5054474;28;20045;-38
2021/07/24 02:04:39;;;;;;;11.70;9.52;;;14.40;99.90;;;;;;5054724;28;20029;-42
2021/07/24 02:07:08;;;;;;;13.65;10.25;;;14.40;99.90;;;;;;5054610;28;20025;-40
2021/07/24 02:09:34;;;;;;;11.93;9.65;;;14.50;99.90;;;;;;5054598;28;20376;-38
2021/07/24 02:12:00;;;;;;;12.63;8.40;;;14.40;99.90;;;;;;5053195;28;20036;-38
2021/07/24 02:14:25;;;;;;;12.50;8.75;;;14.40;99.90;;;;;;5053090;28;20025;-38
2021/07/24 02:16:51;;;;;;;12.27;9.43;;;14.40;99.90;;;;;;5054461;28;20025;-38
2021/07/24 02:19:17;;;;;;;10.98;9.02;;;14.30;99.90;;;;;;5054345;28;20044;-40
2021/07/24 02:21:42;;;;;;;15.38;10.30;;;14.30;99.90;;;;;;5054334;28;20068;-41
2021/07/24 02:24:08;;;;;;;13.88;9.07;;;14.20;99.90;;;;;;5054272;28;20029;-40
2021/07/24 02:26:33;;;;;;;12.55;9.73;;;14.20;99.90;;;;;;5054294;28;20033;-38
2021/07/24 02:28:58;;;;;;;16.42;9.98;;;14.10;99.90;;;;;;5052846;28;20032;-40
2021/07/24 02:31:24;;;;;;;17.75;10.27;;;14.10;99.90;;;;;;5054161;28;20119;-38
2021/07/24 02:33:49;;;;;;;12.75;9.63;;;14.00;99.90;;;;;;5054192;28;20032;-40
2021/07/24 02:36:15;;;;;;;12.63;9.25;;;14.00;99.90;;;;;;5054068;28;20059;-38
2021/07/24 02:38:40;;;;;;;15.93;10.65;;;14.00;99.90;;;;;;5054037;28;20055;-40
2021/07/24 02:41:06;;;;;;;13.27;9.57;;;14.00;99.90;;;;;;5053933;28;20044;-37
2021/07/24 02:43:31;;;;;;;15.20;10.32;;;13.90;99.90;;;;;;5052538;28;20061;-38
2021/07/24 02:45:57;;;;;;;10.95;9.15;;;13.90;99.90;;;;;;5053946;28;20025;-38
2021/07/24 02:48:22;;;;;;;17.25;11.18;;;13.90;99.90;;;;;;5053831;28;20056;-38
2021/07/24 02:50:48;;;;;;;14.70;10.57;;;13.80;99.90;;;;;;5053870;28;20036;-40
2021/07/24 02:53:13;;;;;;;13.90;10.57;;;13.90;99.90;;;;;;5053744;28;20239;-37
2021/07/24 02:55:38;;;;;;;16.35;11.70;;;13.80;99.90;;;;;;5053743;28;20477;-40
2021/07/24 02:58:04;;;;;;;13.85;9.77;;;13.80;99.90;;;;;;5052270;28;20111;-38
2021/07/24 03:00:29;;;;;;;12.63;9.95;;;13.80;99.90;;;;;;5053634;28;20098;-38
2021/07/24 03:02:55;;;;;;;16.27;11.07;;;13.80;99.90;;;;;;5053361;28;20048;-38
2021/07/24 03:05:20;;;;;;;16.88;12.02;;;13.80;99.90;;;;;;5053463;28;20025;-40
2021/07/24 03:07:46;;;;;;;16.50;11.90;;;13.80;99.90;;;;;;5053535;28;20094;-38
2021/07/24 03:10:12;;;;;;;16.50;11.15;;;13.80;99.90;;;;;;5053379;28;20021;-40
2021/07/24 03:12:37;;;;;;;15.63;11.10;;;13.70;99.90;;;;;;5051595;28;20163;-38
2021/07/24 03:15:04;;;;;;;13.55;10.70;;;13.70;99.90;;;;;;5053359;28;20036;-40
2021/07/24 03:17:31;;;;;;;19.50;11.85;;;13.70;99.90;;;;;;5053281;28;20025;-40
2021/07/24 03:19:58;;;;;;;18.60;12.32;;;13.70;99.90;;;;;;5053315;28;20033;-40
2021/07/24 03:22:24;;;;;;;16.40;11.18;;;13.70;99.90;;;;;;5053052;28;20495;-40
2021/07/24 03:24:49;;;;;;;16.17;11.52;;;13.70;99.90;;;;;;5053189;28;20025;-38
2021/07/24 03:27:18;;;;;;;17.77;13.13;;;13.80;99.90;;;;;;5053036;28;20025;-38
2021/07/24 03:29:43;;;;;;;18.95;12.77;;;13.80;99.90;;;;;;5052377;28;20048;-38
2021/07/24 03:32:08;;;;;;;16.02;11.95;;;13.90;99.90;;;;;;5053091;28;20122;-38
2021/07/24 03:34:34;;;;;;;21.95;13.30;;;13.90;99.90;;;;;;5053038;28;20044;-38
2021/07/24 03:36:59;;;;;;;14.38;11.13;;;13.90;99.90;;;;;;5053006;28;20112;-40
2021/07/24 03:39:25;;;;;;;18.70;12.13;;;13.90;99.90;;;;;;5052917;28;20029;-38
2021/07/24 03:41:50;;;;;;;16.13;12.35;;;13.90;99.90;;;;;;5052718;28;20106;-40
2021/07/24 03:44:16;;;;;;;18.63;12.45;;;14.00;99.90;;;;;;5051577;28;20033;-40
2021/07/24 03:46:41;;;;;;;15.05;11.02;;;14.00;99.90;;;;;;5052836;28;20032;-38
2021/07/24 03:49:07;;;;;;;18.00;11.32;;;14.00;99.90;;;;;;5052886;28;20379;-38
2021/07/24 03:51:32;;;;;;;16.15;12.13;;;14.10;99.90;;;;;;5052816;28;20048;-40
2021/07/24 03:53:58;;;;;;;16.48;11.63;;;14.20;99.90;;;;;;5052800;28;20024;-38
2021/07/24 03:56:23;;;;;;;13.80;10.70;;;14.30;99.90;;;;;;5052665;28;20427;-41
2021/07/24 03:58:51;;;;;;;16.90;12.50;;;14.30;99.90;;;;;;5051444;28;20029;-40
2021/07/24 04:01:18;;;;;;;15.30;10.52;;;14.40;99.90;;;;;;5052455;28;20503;-38
2021/07/24 04:03:43;;;;;;;17.67;11.48;;;14.50;99.90;;;;;;5052749;28;20025;-40
2021/07/24 04:06:19;;;;;;;16.05;10.18;;;15.00;99.90;;;;;;5052658;28;20028;-41
2021/07/24 04:08:45;;;;;;;14.55;10.85;;;15.60;99.90;;;;;;5052649;28;20112;-38
2021/07/24 04:11:10;;;;;;;16.60;11.63;;;16.20;99.90;;;;;;5052497;28;20103;-40
2021/07/24 04:13:36;;;;;;;13.70;9.80;;;16.80;99.90;;;;;;5050094;28;20460;-38
2021/07/24 04:16:02;;;;;;;14.07;10.07;;;17.40;99.90;;;;;;5052595;28;20036;-39
2021/07/24 04:18:31;;;;;;;16.23;10.57;;;18.00;99.90;;;;;;5052578;28;20037;-39
2021/07/24 04:20:58;;;;;;;13.27;10.05;;;18.60;99.90;;;;;;5052593;28;20029;-38
2021/07/24 04:23:24;;;;;;;11.07;9.25;;;19.10;99.90;;;;;;5053464;28;20469;-40
2021/07/24 04:25:49;;;;;;;11.80;9.02;;;19.60;99.90;;;;;;5056509;28;20024;-40
2021/07/24 04:28:15;;;;;;;11.68;9.00;;;20.10;99.90;;;;;;5055271;28;20106;-40
2021/07/24 04:30:40;;;;;;;14.63;9.85;;;20.60;99.90;;;;;;5056426;28;20028;-41
2021/07/24 04:33:06;;;;;;;14.35;9.57;;;21.00;99.90;;;;;;5056434;28;20098;-39
2021/07/24 04:35:31;;;;;;;9.73;8.10;;;21.60;99.90;;;;;;5056371;28;20045;-39
2021/07/24 04:37:57;;;;;;;11.88;9.07;;;22.00;99.90;;;;;;5056351;28;20034;-39
2021/07/24 04:40:22;;;;;;;13.00;7.90;;;22.50;99.90;;;;;;5056183;28;20103;-39
2021/07/24 04:42:48;;;;;;;12.45;9.65;;;23.00;99.90;;;;;;5054858;28;20058;-41
2021/07/24 04:45:14;;;;;;;11.40;8.98;;;23.40;99.90;;;;;;5056159;28;20023;-40
2021/07/24 04:47:40;;;;;;;9.90;8.27;;;23.90;99.90;;;;;;5056241;28;20029;-41
2021/07/24 04:50:06;;;;;;;11.52;9.13;;;24.30;99.90;;;;;;5056309;28;20079;-39
2021/07/24 04:52:31;;;;;;;11.20;8.75;;;24.70;99.90;;;;;;5055971;28;20025;-40
2021/07/24 04:55:00;;;;;;;14.15;8.80;;;25.10;99.90;;;;;;5054620;28;20033;-40
2021/07/24 04:57:29;;;;;;;9.75;8.57;;;25.40;99.90;;;;;;5054647;28;20021;-39
2021/07/24 04:59:55;;;;;;;11.60;9.77;;;25.90;99.90;;;;;;5055953;28;20059;-39
2021/07/24 05:02:20;;;;;;;11.48;9.50;;;26.10;99.90;;;;;;5055593;28;20072;-40
2021/07/24 05:04:48;;;;;;;10.25;9.02;;;26.50;99.90;;;;;;5055906;28;20021;-39
2021/07/24 05:07:18;;;;;;;15.25;9.27;;;26.70;99.90;;;;;;5055734;28;20108;-41
2021/07/24 05:09:44;;;;;;;10.75;9.15;;;27.10;99.90;;;;;;5055633;28;20044;-39
2021/07/24 05:12:09;;;;;;;13.30;10.02;;;27.10;99.90;;;;;;5055630;28;20064;-39
2021/07/24 05:14:36;;;;;;;12.50;9.95;;;27.40;99.90;;;;;;5054269;28;20044;-40
2021/07/24 05:17:05;;;;;;;10.85;9.13;;;27.70;99.60;;;;;;5055415;28;20504;-39
2021/07/24 05:19:31;;;;;;;11.75;8.73;;;27.90;94.00;;;;;;5055439;28;20021;-42
2021/07/24 05:21:57;;;;;;;10.35;9.23;;;28.10;96.00;;;;;;5055400;28;20062;-39
2021/07/24 05:24:22;;;;;;;11.40;9.80;;;28.40;95.20;;;;;;5055477;28;20474;-39
2021/07/24 05:26:47;;;;;;;10.20;8.85;;;28.50;93.70;;;;;;5055450;28;20100;-41
2021/07/24 05:29:13;;;;;;;10.88;8.93;;;28.70;92.30;;;;;;5054191;28;20031;-39
2021/07/24 05:31:38;;;;;;;11.57;10.07;;;29.10;91.50;;;;;;5055281;28;20476;-41
2021/07/24 05:34:04;;;;;;;11.48;9.15;;;29.20;88.90;;;;;;5054899;28;20064;-39
2021/07/24 05:36:30;;;;;;;11.18;9.80;;;29.40;87.10;;;;;;5055020;28;20036;-40
2021/07/24 05:38:55;;;;;;;10.90;9.27;;;29.80;85.50;;;;;;5055247;28;20036;-39
2021/07/24 05:41:21;;;;;;;11.73;10.52;;;29.80;81.70;;;;;;5055055;28;20061;-39
2021/07/24 05:43:46;;;;;;;12.55;10.15;;;30.20;78.80;;;;;;5053913;28;20033;-40
2021/07/24 05:46:12;;;;;;;11.98;9.68;;;30.30;76.60;;;;;;5055066;28;20021;-39
2021/07/24 05:48:37;;;;;;;12.25;9.40;;;30.50;73.60;;;;;;5054999;28;20032;-39
2021/07/24 05:51:07;;;;;;;10.63;9.52;;;30.50;71.90;;;;;;5054988;28;20028;-41
2021/07/24 05:53:33;;;;;;;10.18;9.07;;;30.70;65.80;;;;;;5054904;28;20025;-40
2021/07/24 05:55:59;;;;;;;12.98;10.13;;;30.90;68.90;;;;;;5054856;28;20074;-41
2021/07/24 05:58:25;;;;;;;10.20;8.90;;;31.10;65.60;;;;;;5053524;28;20384;-39
2021/07/24 06:00:50;;;;;;;11.07;9.93;;;31.20;65.60;;;;;;5054657;28;20029;-41
2021/07/24 06:03:16;;;;;;;13.65;9.68;;;31.60;63.80;;;;;;5054645;28;20029;-40
2021/07/24 06:05:41;;;;;;;9.73;8.75;;;31.80;61.70;;;;;;5054562;28;20037;-39
2021/07/24 06:08:07;;;;;;;10.95;9.73;;;32.00;60.90;;;;;;5054622;28;20032;-41
2021/07/24 06:10:32;;;;;;;14.70;10.30;;;32.40;58.60;;;;;;5054556;28;20211;-42
2021/07/24 06:12:58;;;;;;;13.35;10.20;;;32.50;56.50;;;;;;5053321;28;20033;-39
2021/07/24 06:15:23;;;;;;;11.48;9.80;;;32.60;55.40;;;;;;5054542;28;20091;-40
2021/07/24 06:17:49;;;;;;;12.13;10.80;;;32.20;54.20;;;;;;5054433;28;20064;-40
2021/07/24 06:20:14;;;;;;;13.65;10.07;;;32.40;53.30;;;;;;5054366;28;20040;-39
2021/07/24 06:22:40;;;;;;;13.02;11.45;;;32.20;52.80;;;;;;5054208;28;20302;-41
2021/07/24 06:25:06;;;;;;;13.40;11.70;;;32.50;50.50;;;;;;5054300;28;20029;-40
2021/07/24 06:27:31;;;;;;;11.43;9.50;;;32.40;48.80;;;;;;5052941;28;20298;-40
2021/07/24 06:29:57;;;;;;;13.15;9.90;;;32.60;49.40;;;;;;5054241;28;20409;-41
2021/07/24 06:32:22;;;;;;;10.93;9.82;;;33.20;48.20;;;;;;5054165;28;20033;-40
2021/07/24 06:34:47;;;;;;;11.63;10.23;;;33.20;46.70;;;;;;5054089;28;20124;-39
2021/07/24 06:37:13;;;;;;;10.65;9.48;;;33.50;46.60;;;;;;5053959;28;20385;-40
2021/07/24 06:39:40;;;;;;;11.35;9.80;;;33.80;46.00;;;;;;5053987;28;20040;-40
2021/07/24 06:42:05;;;;;;;11.27;10.05;;;33.30;45.10;;;;;;5053909;28;20106;-40
2021/07/24 06:44:31;;;;;;;13.32;10.25;;;33.10;44.00;;;;;;5052594;28;20484;-39
2021/07/24 06:46:57;;;;;;;12.63;10.45;;;33.30;44.50;;;;;;5053064;28;20023;-40
2021/07/24 06:49:22;;;;;;;10.77;9.68;;;33.50;43.60;;;;;;5053868;28;20026;-40
2021/07/24 06:51:48;;;;;;;11.63;10.07;;;33.60;42.80;;;;;;5053641;28;20033;-42
2021/07/24 06:54:13;;;;;;;11.13;9.55;;;33.60;42.90;;;;;;5053760;28;20077;-39
2021/07/24 06:56:39;;;;;;;9.50;8.50;;;33.80;42.30;;;;;;5053658;28;20029;-40
2021/07/24 06:59:04;;;;;;;10.82;9.70;;;34.20;41.70;;;;;;5052451;28;20061;-41
2021/07/24 07:01:30;;;;;;;11.73;9.80;;;34.70;40.50;;;;;;5053414;28;20455;-40
2021/07/24 07:03:55;;;;;;;10.73;9.63;;;35.00;39.80;;;;;;5053643;28;20063;-40
2021/07/24 07:06:21;;;;;;;10.93;9.85;;;35.10;39.00;;;;;;5053407;28;20079;-40
2021/07/24 07:08:46;;;;;;;13.25;9.93;;;35.20;38.50;;;;;;5053454;28;20048;-40
2021/07/24 07:11:13;;;;;;;10.32;9.32;;;35.80;38.00;;;;;;5053467;28;20047;-40
2021/07/24 07:13:39;;;;;;;9.65;8.52;;;36.20;36.50;;;;;;5052147;28;20033;-41
2021/07/24 07:16:06;;;;;;;9.88;8.90;;;36.40;36.20;;;;;;5053466;28;20028;-39
2021/07/24 07:18:32;;;;;;;9.55;8.50;;;37.10;34.40;;;;;;5053356;28;20035;-40
2021/07/24 07:20:58;;;;;;;10.80;9.68;;;37.50;34.00;;;;;;5053232;28;20446;-40
2021/07/24 07:23:23;;;;;;;11.25;10.07;;;38.00;33.30;;;;;;5053371;28;20036;-40
2021/07/24 07:25:49;;;;;;;9.75;8.80;;;37.80;31.20;;;;;;5053192;28;20029;-42
2021/07/24 07:28:14;;;;;;;10.55;9.45;;;37.50;30.80;;;;;;5051929;28;20045;-40
2021/07/24 07:30:40;;;;;;;10.63;9.52;;;37.90;31.20;;;;;;5053114;28;20095;-40
2021/07/24 07:33:05;;;;;;;9.93;9.00;;;38.20;30.70;;;;;;5053168;28;20033;-40
2021/07/24 07:35:31;;;;;;;10.50;9.40;;;38.30;30.70;;;;;;5053009;28;20549;-42
2021/07/24 07:37:56;;;;;;;11.57;10.20;;;38.20;29.80;;;;;;5053028;28;20032;-40
2021/07/24 07:40:22;;;;;;;10.77;9.40;;;37.70;29.80;;;;;;5052990;28;20060;-42
2021/07/24 07:42:48;;;;;;;13.05;10.18;;;37.40;30.00;;;;;;5051576;28;20109;-43
2021/07/24 07:45:14;;;;;;;11.25;10.18;;;37.00;29.50;;;;;;5052948;28;20044;-40
2021/07/24 07:47:40;;;;;;;10.80;9.68;;;36.50;29.60;;;;;;5052845;28;20591;-40
2021/07/24 07:50:06;;;;;;;11.50;10.00;;;36.40;30.40;;;;;;5052732;28;20468;-42
2021/07/24 07:52:32;;;;;;;10.57;9.45;;;36.40;30.00;;;;;;5052845;28;20527;-42
2021/07/24 07:54:58;;;;;;;11.60;10.43;;;36.40;29.60;;;;;;5052808;28;20040;-40
2021/07/24 07:57:26;;;;;;;12.48;10.38;;;36.10;29.60;;;;;;5051310;28;20376;-43
2021/07/24 07:59:52;;;;;;;11.80;10.57;;;36.30;29.10;;;;;;5052976;28;20420;-40
2021/07/24 08:02:18;;;;;;;10.88;9.43;;;36.70;29.10;;;;;;5052460;28;20081;-40
2021/07/24 08:04:43;;;;;;;10.95;9.88;;;37.10;28.90;;;;;;5052497;28;20100;-40
2021/07/24 08:07:09;;;;;;;10.32;9.23;;;37.20;28.50;;;;;;5052734;28;20361;-41
2021/07/24 08:09:34;;;;;;;10.50;9.50;;;37.40;28.20;;;;;;5052608;28;20061;-40
2021/07/24 08:12:00;;;;;;;10.55;9.55;;;37.10;27.40;;;;;;5052611;28;20203;-41
2021/07/24 08:14:25;;;;;;;12.15;9.95;;;36.90;27.30;;;;;;5051286;28;20064;-39
2021/07/24 08:16:51;;;;;;;10.65;9.55;;;37.20;27.50;;;;;;5052544;28;20108;-40
2021/07/24 08:19:16;;;;;;;11.30;9.48;;;37.50;27.10;;;;;;5052519;28;20025;-40
2021/07/24 08:21:42;;;;;;;11.45;10.32;;;37.20;27.20;;;;;;5052426;28;20033;-40
2021/07/24 08:24:07;;;;;;;12.70;11.48;;;37.50;27.00;;;;;;5052622;28;20492;-41
2021/07/24 08:26:33;;;;;;;11.10;9.88;;;37.50;26.80;;;;;;5052534;28;20503;-40
2021/07/24 08:28:59;;;;;;;10.82;9.73;;;37.70;26.60;;;;;;5051173;28;20095;-41
2021/07/24 08:31:24;;;;;;;11.40;9.88;;;38.30;25.90;;;;;;5052522;28;20025;-40
2021/07/24 08:33:50;;;;;;;12.90;11.32;;;37.90;25.70;;;;;;5052291;28;20025;-42
2021/07/24 08:36:15;;;;;;;11.75;10.55;;;37.70;25.50;;;;;;5052479;28;20036;-40
2021/07/24 08:38:41;;;;;;;11.07;9.98;;;37.30;26.00;;;;;;5052363;28;20486;-40
2021/07/24 08:41:06;;;;;;;12.48;11.23;;;37.50;26.20;;;;;;5052393;28;20033;-40
2021/07/24 08:43:32;;;;;;;11.07;9.98;;;37.70;25.40;;;;;;5050986;28;20108;-42
2021/07/24 08:45:58;;;;;;;11.20;10.00;;;37.60;25.60;;;;;;5052333;28;20029;-40
2021/07/24 08:48:24;;;;;;;11.93;9.25;;;37.50;25.90;;;;;;5052302;28;20067;-42
2021/07/24 08:50:53;;;;;;;12.10;11.00;;;37.70;26.40;;;;;;5052121;28;20029;-40
2021/07/24 08:53:25;;;;;;;11.48;9.60;;;38.00;24.50;;;;;;5052264;28;20041;-43
2021/07/24 08:56:00;;;;;;;10.27;9.27;;;38.20;25.20;;;;;;5052164;28;20049;-41
2021/07/24 08:58:27;;;;;;;9.93;8.93;;;38.70;24.50;;;;;;5049783;28;20017;-42
2021/07/24 09:00:53;;;;;;;10.27;9.27;;;39.20;24.60;;;;;;5051993;28;20033;-41
2021/07/24 09:03:19;;;;;;;10.55;9.50;;;38.60;24.40;;;;;;5052017;28;20040;-40
2021/07/24 09:05:53;;;;;;;11.07;9.88;;;38.50;24.60;;;;;;5052180;28;20375;-42
2021/07/24 09:08:20;;;;;;;11.20;10.18;;;38.60;24.10;;;;;;5052174;28;20108;-42
2021/07/24 09:10:47;;;;;;;13.20;11.10;;;38.40;24.10;;;;;;5055122;28;20020;-40
2021/07/24 09:13:14;;;;;;;11.73;10.40;;;38.20;24.30;;;;;;5054454;28;20021;-42
2021/07/24 09:15:39;;;;;;;11.48;10.40;;;38.00;24.60;;;;;;5055554;28;20033;-40
2021/07/24 09:18:05;;;;;;;11.18;10.07;;;38.00;24.60;;;;;;5055672;28;20647;-40
2021/07/24 09:20:31;;;;;;;11.10;10.10;;;38.00;24.60;;;;;;5055575;28;20468;-40
2021/07/24 09:22:57;;;;;;;11.77;10.57;;;37.90;24.30;;;;;;5055413;28;20480;-42
2021/07/24 09:25:22;;;;;;;11.43;10.23;;;37.50;24.20;;;;;;5055547;28;20035;-41
2021/07/24 09:27:51;;;;;;;11.68;10.55;;;37.20;24.60;;;;;;5054155;28;20487;-40
2021/07/24 09:30:27;;;;;;;11.05;9.95;;;36.80;24.20;;;;;;5055289;28;20025;-40
2021/07/24 09:33:12;;;;;;;14.82;11.25;;;36.70;24.10;;;;;;5055305;28;20063;-42
2021/07/24 09:35:39;;;;;;;12.52;10.93;;;36.60;24.70;;;;;;5055275;28;20028;-42
2021/07/24 09:38:06;;;;;;;11.10;10.00;;;37.00;24.50;;;;;;5055214;28;20044;-41
2021/07/24 09:40:36;;;;;;;12.02;10.82;;;37.10;24.50;;;;;;5055207;28;20025;-39
2021/07/24 09:43:02;;;;;;;11.65;10.07;;;37.00;24.30;;;;;;5053702;28;20587;-40
2021/07/24 09:45:27;;;;;;;13.65;11.07;;;36.80;24.70;;;;;;5055151;28;20052;-43
2021/07/24 09:47:54;;;;;;;11.02;9.85;;;36.60;24.40;;;;;;5055098;28;20103;-42
2021/07/24 09:50:21;;;;;;;12.10;9.95;;;36.30;24.50;;;;;;5055032;28;20518;-40
2021/07/24 09:52:51;;;;;;;11.48;10.23;;;36.10;24.70;;;;;;5054995;28;20078;-40
2021/07/24 09:55:23;;;;;;;11.38;9.27;;;35.40;25.30;;;;;;5054857;28;20032;-40
2021/07/24 09:57:51;;;;;;;11.82;10.70;;;35.10;25.30;;;;;;5053644;28;20020;-40
2021/07/24 10:00:27;;;;;;;11.63;9.98;;;34.70;25.70;;;;;;5054969;28;20329;-40
2021/07/24 10:03:00;;;;;;;13.65;10.07;;;34.40;26.20;;;;;;5054598;28;20124;-40
2021/07/24 10:05:37;;;;;;;10.93;9.70;;;34.00;27.00;;;;;;5054798;28;20017;-40
2021/07/24 10:08:14;;;;;;;11.85;10.52;;;33.20;28.60;;;;;;5054683;28;20021;-41
2021/07/24 10:10:42;;;;;;;11.10;9.43;;;32.80;28.00;;;;;;5054691;28;20480;-40
2021/07/24 10:13:10;;;;;;;11.20;10.02;;;32.50;28.90;;;;;;5053328;28;20084;-40
2021/07/24 10:15:37;;;;;;;10.75;9.65;;;31.70;29.50;;;;;;5054677;28;20540;-42
2021/07/24 10:18:06;;;;;;;11.10;9.55;;;31.50;29.80;;;;;;5054461;28;20104;-40
2021/07/24 10:20:37;;;;;;;13.50;9.55;;;31.20;30.00;;;;;;5054495;28;20424;-39
2021/07/24 10:23:03;;;;;;;11.07;9.65;;;30.90;30.90;;;;;;5054349;28;20172;-40
2021/07/24 10:25:29;;;;;;;17.77;10.75;;;30.60;31.50;;;;;;5054397;28;20029;-40
2021/07/24 10:27:56;;;;;;;12.40;10.55;;;30.10;31.60;;;;;;5053023;28;20075;-39
2021/07/24 10:30:29;;;;;;;12.98;10.55;;;29.80;32.10;;;;;;5054301;28;20052;-41
2021/07/24 10:32:58;;;;;;;12.93;10.10;;;29.50;33.30;;;;;;5054027;28;20060;-41
2021/07/24 10:35:36;;;;;;;16.95;10.27;;;29.50;33.80;;;;;;5054252;28;20025;-39
2021/07/24 10:38:29;;;;;;;12.05;10.75;;;29.50;34.20;;;;;;5054071;28;20218;-40
2021/07/24 10:40:55;;;;;;;14.32;10.70;;;29.50;33.90;;;;;;5053978;28;20039;-41
2021/07/24 10:43:58;;;;;;;11.65;9.77;;;29.40;33.60;;;;;;5052588;28;20054;-39
2021/07/24 10:46:45;;;;;;;11.50;10.07;;;29.40;35.90;;;;;;5053992;28;20162;-39
2021/07/24 10:49:36;;;;;;;12.80;10.48;;;29.30;34.40;;;;;;5053820;28;20067;-40
2021/07/24 10:52:07;;;;;;;10.48;9.18;;;29.30;35.20;;;;;;5053619;28;20029;-40
2021/07/24 10:54:34;;;;;;;13.45;10.02;;;29.40;34.90;;;;;;5053763;28;20035;-41
2021/07/24 10:56:59;;;;;;;11.77;10.35;;;29.40;35.10;;;;;;5053748;28;20396;-42
2021/07/24 10:59:26;;;;;;;12.93;10.13;;;29.40;34.70;;;;;;5052505;28;20035;-40
2021/07/24 11:01:54;;;;;;;18.02;10.57;;;29.50;34.40;;;;;;5053501;28;20377;-41
2021/07/24 11:04:35;;;;;;;15.02;10.77;;;29.30;34.20;;;;;;5053537;28;20374;-42
2021/07/24 11:07:15;;;;;;;15.48;10.95;;;29.30;35.50;;;;;;5053458;28;20104;-39
2021/07/24 11:09:42;;;;;;;13.98;10.23;;;29.30;34.50;;;;;;5053494;28;20143;-41
2021/07/24 11:12:11;;;;;;;12.25;8.43;;;29.40;34.70;;;;;;5052633;28;20099;-40
2021/07/24 11:14:37;;;;;;;13.48;10.77;;;29.50;35.10;;;;;;5053290;28;20147;-39
2021/07/24 11:17:05;;;;;;;11.85;10.55;;;29.40;35.40;;;;;;5053307;28;20471;-40
2021/07/24 11:19:32;;;;;;;11.05;9.30;;;29.30;36.00;;;;;;5053355;28;20021;-40
2021/07/24 11:22:12;;;;;;;13.85;9.15;;;29.30;36.20;;;;;;5053261;28;20033;-42
2021/07/24 11:25:04;;;;;;;11.73;10.27;;;29.30;36.50;;;;;;5053342;28;20017;-41
2021/07/24 11:27:33;;;;;;;12.30;9.35;;;29.30;38.10;;;;;;5036078;28;20032;-41
2021/07/24 11:30:05;;;;;;;13.25;10.55;;;29.30;37.00;;;;;;5053146;28;20135;-46
2021/07/24 11:32:35;;;;;;;13.30;10.88;;;29.20;36.70;;;;;;5052705;28;20021;-41
2021/07/24 11:35:05;;;;;;;16.75;10.18;;;29.20;36.40;;;;;;5053123;28;20021;-40
2021/07/24 11:37:45;;;;;;;11.02;9.07;;;29.30;36.60;;;;;;5053017;28;20104;-43
2021/07/24 11:40:15;;;;;;;12.30;9.60;;;29.30;37.80;;;;;;5053009;28;20052;-40
2021/07/24 11:42:43;;;;;;;10.68;8.95;;;29.50;36.60;;;;;;5051537;28;20078;-42
2021/07/24 11:45:09;;;;;;;11.60;10.00;;;29.50;36.40;;;;;;5052963;28;20484;-40
2021/07/24 11:47:35;;;;;;;14.93;10.07;;;29.50;36.50;;;;;;5052983;28;20025;-42
2021/07/24 11:50:16;;;;;;;11.02;9.55;;;29.50;36.40;;;;;;5052673;28;20063;-43
2021/07/24 11:52:42;;;;;;;15.18;10.07;;;29.50;37.30;;;;;;5052865;28;20032;-40
2021/07/24 11:55:11;;;;;;;11.18;8.60;;;29.30;36.80;;;;;;5052755;28;20044;-39
2021/07/24 11:57:37;;;;;;;13.68;9.70;;;29.30;37.30;;;;;;5051578;28;20037;-39
2021/07/24 12:00:03;;;;;;;11.35;9.48;;;29.30;37.30;;;;;;5051522;28;20025;-42
2021/07/24 12:02:29;;;;;;;12.30;10.40;;;29.30;37.00;;;;;;5052391;28;20047;-41
2021/07/24 12:04:54;;;;;;;14.15;10.48;;;29.30;36.40;;;;;;5052726;28;20439;-39
2021/07/24 12:07:23;;;;;;;10.40;9.27;;;29.40;37.00;;;;;;5052895;28;20033;-41
2021/07/24 12:09:50;;;;;;;11.05;9.70;;;29.40;36.90;;;;;;5052678;28;20071;-40
2021/07/24 12:12:16;;;;;;;11.63;9.05;;;29.50;36.80;;;;;;5051301;28;20025;-40
2021/07/24 12:14:41;;;;;;;12.18;8.88;;;29.50;37.00;;;;;;5052683;28;20029;-40
2021/07/24 12:17:12;;;;;;;9.93;8.88;;;29.70;37.10;;;;;;5052450;28;20075;-39
2021/07/24 12:19:42;;;;;;;13.07;8.68;;;29.70;36.40;;;;;;5052598;28;20016;-40
2021/07/24 12:22:17;;;;;;;10.13;8.98;;;29.80;36.30;;;;;;5052413;28;20037;-39
2021/07/24 12:24:44;;;;;;;10.50;8.95;;;29.80;37.00;;;;;;5052473;28;20096;-39
2021/07/24 12:27:15;;;;;;;12.82;9.60;;;29.80;36.50;;;;;;5051050;28;20029;-41
2021/07/24 12:30:00;;;;;;;10.68;9.32;;;29.80;36.50;;;;;;5052375;28;20025;-46
2021/07/24 12:32:39;;;;;;;12.38;10.57;;;29.90;35.80;;;;;;5052437;28;20048;-41
2021/07/24 12:35:17;;;;;;;12.43;8.88;;;30.00;35.00;;;;;;5052282;28;20037;-40
2021/07/24 12:37:43;;;;;;;12.80;9.20;;;29.90;35.40;;;;;;5052316;28;20420;-41
2021/07/24 12:40:22;;;;;;;9.75;8.52;;;30.00;36.00;;;;;;5052135;28;20028;-39